Harare, Zimbabwe
Current Conditions -  °F | °C
As of 2:00 PM on Saturday 25 Oct 2014 (Local Time) from FVHA Reporting Station
Clear Clear  
Wind Chill: 86°   Ceiling: Unl
Heat Index: 86°   Visibility: 6mi
Dew Point: 52°   Wind: 6mph
Humidity: 31%   Direction: NA
Pressure: 30.06"   Gusts: NA
Location:  17.82°S, 31.05°E
Report Text: FVHA 251200Z VRB05KT CAVOK 30/11 Q1018 NOSIG
Loading
Personal Weather Stations






























Interactive Weather Map New forecast layout! Learn more

10-Day Weather Forecast

Advertisements
Track Severe Weather on mobile